createdAt,value
2018-04-11T00:00:18.931Z,87.7
2018-04-11T00:01:20.284Z,87.7
2018-04-11T00:02:21.619Z,88.1
2018-04-11T00:03:22.976Z,87.8
2018-04-11T00:04:24.330Z,87.9
2018-04-11T00:05:25.679Z,88.0
2018-04-11T00:06:27.018Z,87.8
2018-04-11T00:07:28.376Z,88.0
2018-04-11T00:08:29.733Z,87.6
2018-04-11T00:09:31.078Z,87.5
2018-04-11T00:10:32.436Z,87.6
2018-04-11T00:11:33.785Z,87.5
2018-04-11T00:12:35.140Z,87.5
2018-04-11T00:13:36.493Z,87.5
2018-04-11T00:14:37.856Z,87.7
2018-04-11T00:15:39.203Z,87.6
2018-04-11T00:16:40.558Z,87.7
2018-04-11T00:17:41.910Z,87.6
2018-04-11T00:18:43.268Z,88.0
2018-04-11T00:19:44.614Z,88.0
2018-04-11T00:20:45.960Z,88.1
2018-04-11T00:21:47.315Z,88.2
2018-04-11T00:22:48.685Z,87.8
2018-04-11T00:23:50.021Z,87.8
2018-04-11T00:24:51.370Z,87.8
2018-04-11T00:25:52.734Z,87.7
2018-04-11T00:26:54.089Z,88.0
2018-04-11T00:27:55.440Z,88.0
2018-04-11T00:28:56.798Z,87.9
2018-04-11T00:29:58.156Z,87.4
2018-04-11T00:30:59.509Z,87.8
2018-04-11T00:32:00.863Z,87.6
2018-04-11T00:33:02.240Z,87.7
2018-04-11T00:34:03.583Z,87.7
2018-04-11T00:35:04.938Z,87.3
2018-04-11T00:36:06.293Z,87.6
2018-04-11T00:37:07.642Z,87.7
2018-04-11T00:38:08.997Z,87.3
2018-04-11T00:39:10.347Z,87.7
2018-04-11T00:40:11.699Z,87.5
2018-04-11T00:41:13.044Z,87.7
2018-04-11T00:42:14.401Z,87.6
2018-04-11T00:43:15.755Z,88.0
2018-04-11T00:44:17.104Z,87.6
2018-04-11T00:45:18.453Z,87.9
2018-04-11T00:46:19.811Z,87.7
2018-04-11T00:47:21.155Z,88.0
2018-04-11T00:48:22.536Z,88.0
2018-04-11T00:49:24.711Z,88.0
2018-04-11T00:50:26.055Z,88.1
2018-04-11T00:51:27.410Z,88.0
2018-04-11T00:52:28.764Z,88.0
2018-04-11T00:53:30.110Z,88.0
2018-04-11T00:54:31.465Z,88.0
2018-04-11T00:55:32.852Z,87.9
2018-04-11T00:56:34.161Z,88.0
2018-04-11T00:57:35.513Z,88.1
2018-04-11T00:58:36.870Z,88.1
2018-04-11T00:59:38.213Z,88.1
2018-04-11T01:00:39.562Z,87.6
2018-04-11T01:01:40.905Z,87.7
2018-04-11T01:02:42.262Z,87.5
2018-04-11T01:03:43.602Z,87.6
2018-04-11T01:04:44.955Z,87.7
2018-04-11T01:05:46.310Z,87.4
2018-04-11T01:06:47.654Z,87.8
2018-04-11T01:07:49.011Z,87.4
2018-04-11T01:08:50.370Z,87.5
2018-04-11T01:09:51.725Z,87.5
2018-04-11T01:10:53.071Z,87.5
2018-04-11T01:11:54.429Z,87.5
2018-04-11T01:12:55.786Z,87.2
2018-04-11T01:13:57.121Z,87.2
2018-04-11T01:14:58.486Z,87.3
2018-04-11T01:15:59.831Z,87.4
2018-04-11T01:17:01.195Z,87.2
2018-04-11T01:18:02.541Z,87.4
2018-04-11T01:19:03.889Z,87.2
2018-04-11T01:20:05.237Z,87.2
2018-04-11T01:21:06.588Z,87.4
2018-04-11T01:22:07.936Z,87.2
2018-04-11T01:23:09.291Z,87.3
2018-04-11T01:24:10.643Z,86.7
2018-04-11T01:25:11.988Z,87.1
2018-04-11T01:26:13.349Z,86.7
2018-04-11T01:27:14.701Z,86.8
2018-04-11T01:28:16.053Z,87.2
2018-04-11T01:29:17.411Z,87.1
2018-04-11T01:30:18.756Z,87.1
2018-04-11T01:31:20.110Z,87.4
2018-04-11T01:32:21.462Z,87.5
2018-04-11T01:33:22.815Z,87.3
2018-04-11T01:34:24.170Z,87.1
2018-04-11T01:35:25.519Z,87.1
2018-04-11T01:36:26.864Z,86.9
2018-04-11T01:37:28.224Z,87.1
2018-04-11T01:38:29.575Z,87.0
2018-04-11T01:39:30.930Z,86.4
2018-04-11T01:40:32.287Z,86.3
2018-04-11T01:41:33.633Z,86.5
2018-04-11T01:42:34.980Z,86.0
2018-04-11T01:43:36.322Z,85.8
2018-04-11T01:44:37.672Z,86.6
2018-04-11T01:45:39.019Z,86.6
2018-04-11T01:46:40.366Z,86.5
2018-04-11T01:47:41.718Z,86.4
2018-04-11T01:48:43.067Z,86.6
2018-04-11T01:49:44.422Z,86.5
2018-04-11T01:50:45.771Z,87.1
2018-04-11T01:51:47.119Z,86.9
2018-04-11T01:52:48.472Z,87.1
2018-04-11T01:53:49.820Z,87.1
2018-04-11T01:54:51.174Z,86.9
2018-04-11T01:55:52.520Z,86.9
2018-04-11T01:56:53.874Z,87.0
2018-04-11T01:57:55.225Z,86.8
2018-04-11T01:58:56.572Z,86.8
2018-04-11T01:59:57.920Z,87.2
2018-04-11T02:00:59.270Z,86.8
2018-04-11T02:02:00.625Z,87.5
2018-04-11T02:03:01.970Z,87.4
2018-04-11T02:04:03.322Z,87.2
2018-04-11T02:05:04.670Z,87.2
2018-04-11T02:06:06.029Z,87.1
2018-04-11T02:07:07.370Z,87.1
2018-04-11T02:08:08.727Z,87.1
2018-04-11T02:09:10.068Z,87.3
2018-04-11T02:10:11.421Z,87.1
2018-04-11T02:11:12.776Z,87.1
2018-04-11T02:12:14.128Z,87.1
2018-04-11T02:13:15.479Z,87.5
2018-04-11T02:14:16.832Z,87.2
2018-04-11T02:15:18.199Z,87.5
2018-04-11T02:16:19.553Z,87.5
2018-04-11T02:17:20.900Z,87.3
2018-04-11T02:18:22.243Z,87.5
2018-04-11T02:19:23.588Z,87.5
2018-04-11T02:20:24.944Z,87.2
2018-04-11T02:21:26.288Z,87.4
2018-04-11T02:22:27.640Z,87.3
2018-04-11T02:23:28.989Z,87.6
2018-04-11T02:24:30.347Z,87.9
2018-04-11T02:25:31.690Z,87.9
2018-04-11T02:26:33.041Z,87.7
2018-04-11T02:27:34.393Z,87.8
2018-04-11T02:28:35.739Z,87.7
2018-04-11T02:29:37.093Z,87.8
2018-04-11T02:30:38.451Z,87.7
2018-04-11T02:31:39.802Z,87.7
2018-04-11T02:32:41.144Z,87.5
2018-04-11T02:33:42.493Z,87.5
2018-04-11T02:34:43.841Z,87.6
2018-04-11T02:35:45.190Z,87.6
2018-04-11T02:36:46.547Z,88.4
2018-04-11T02:37:47.895Z,88.0
2018-04-11T02:38:49.249Z,88.2
2018-04-11T02:39:50.588Z,88.2
2018-04-11T02:40:51.943Z,88.0
2018-04-11T02:41:53.285Z,88.1
2018-04-11T02:42:54.636Z,88.5
2018-04-11T02:43:55.990Z,88.4
2018-04-11T02:44:57.337Z,88.5
2018-04-11T02:45:58.689Z,88.3
2018-04-11T02:47:00.040Z,88.4
2018-04-11T02:48:01.389Z,88.4
2018-04-11T02:49:02.740Z,88.5
2018-04-11T02:50:04.089Z,88.6
2018-04-11T02:51:05.442Z,88.5
2018-04-11T02:52:06.787Z,88.6
2018-04-11T02:53:08.142Z,88.5
2018-04-11T02:54:09.494Z,88.6
2018-04-11T02:55:10.839Z,88.5
2018-04-11T02:56:12.193Z,88.8
2018-04-11T02:57:13.548Z,89.0
2018-04-11T02:58:14.890Z,89.0
2018-04-11T02:59:16.234Z,88.9
2018-04-11T03:00:17.582Z,88.6
2018-04-11T03:01:18.935Z,88.5
2018-04-11T03:02:20.280Z,88.5
2018-04-11T03:03:21.625Z,87.7
2018-04-11T03:04:22.975Z,87.9
2018-04-11T03:05:24.338Z,87.5
2018-04-11T03:06:25.693Z,87.6
2018-04-11T03:07:27.043Z,87.9
2018-04-11T03:08:28.388Z,87.8
2018-04-11T03:09:29.740Z,87.8
2018-04-11T03:10:31.088Z,87.7
2018-04-11T03:11:32.442Z,87.8
2018-04-11T03:12:33.791Z,87.9
2018-04-11T03:13:35.136Z,87.6
2018-04-11T03:14:36.481Z,87.9
2018-04-11T03:15:37.827Z,87.8
2018-04-11T03:16:39.177Z,87.9
2018-04-11T03:17:40.527Z,87.9
2018-04-11T03:18:41.875Z,87.5
2018-04-11T03:19:43.232Z,87.2
2018-04-11T03:20:44.592Z,87.4
2018-04-11T03:21:45.945Z,87.4
2018-04-11T03:22:47.291Z,87.5
2018-04-11T03:23:48.637Z,87.3
2018-04-11T03:24:49.996Z,87.3
2018-04-11T03:25:51.347Z,88.0
2018-04-11T03:26:52.711Z,87.7
2018-04-11T03:27:54.090Z,87.9
2018-04-11T03:28:55.440Z,87.3
2018-04-11T03:29:56.798Z,87.4
2018-04-11T03:30:58.138Z,87.2
2018-04-11T03:31:59.487Z,87.2
2018-04-11T03:33:00.833Z,86.8
2018-04-11T03:34:02.202Z,86.9
2018-04-11T03:35:03.548Z,87.1
2018-04-11T03:36:04.904Z,87.1
2018-04-11T03:37:06.239Z,87.0
2018-04-11T03:38:07.594Z,87.1
2018-04-11T03:39:08.939Z,87.0
2018-04-11T03:40:10.289Z,86.3
2018-04-11T03:41:11.633Z,86.3
2018-04-11T03:42:12.979Z,86.3
2018-04-11T03:43:14.335Z,87.0
2018-04-11T03:44:15.685Z,86.8
2018-04-11T03:45:17.034Z,87.3
2018-04-11T03:46:18.377Z,87.1
2018-04-11T03:47:19.735Z,87.5
2018-04-11T03:48:21.077Z,87.3
2018-04-11T03:49:22.432Z,87.4
2018-04-11T03:50:23.789Z,87.2
2018-04-11T03:51:25.139Z,87.3
2018-04-11T03:52:26.492Z,86.8
2018-04-11T03:53:27.833Z,86.6
2018-04-11T03:54:29.184Z,86.8
2018-04-11T03:55:30.546Z,86.1
2018-04-11T03:56:31.891Z,86.1
2018-04-11T03:57:33.243Z,86.3
2018-04-11T03:58:34.596Z,86.2
2018-04-11T03:59:35.940Z,86.3
2018-04-11T04:00:37.302Z,86.0
2018-04-11T04:01:38.712Z,86.1
2018-04-11T04:02:39.998Z,86.3
2018-04-11T04:03:41.346Z,86.0
2018-04-11T04:04:42.695Z,86.0
2018-04-11T04:05:44.048Z,86.3
2018-04-11T04:06:45.403Z,86.1
2018-04-11T04:07:46.777Z,85.8
2018-04-11T04:08:48.709Z,86.8
2018-04-11T04:09:50.052Z,86.3
2018-04-11T04:10:51.403Z,86.8
2018-04-11T04:11:52.761Z,86.9
2018-04-11T04:12:55.357Z,86.8
2018-04-11T04:13:56.752Z,86.2
2018-04-11T04:14:58.064Z,85.9
2018-04-11T04:15:59.421Z,86.2
2018-04-11T04:17:00.774Z,86.0
2018-04-11T04:18:02.128Z,85.8
2018-04-11T04:19:03.483Z,85.8
2018-04-11T04:20:04.836Z,85.8
2018-04-11T04:21:06.184Z,86.4
2018-04-11T04:22:07.542Z,86.4
2018-04-11T04:23:08.889Z,86.2
2018-04-11T04:24:10.232Z,86.0
2018-04-11T04:25:11.582Z,86.8
2018-04-11T04:26:12.946Z,86.6
2018-04-11T04:27:14.297Z,86.6
2018-04-11T04:28:15.659Z,86.8
2018-04-11T04:29:17.009Z,86.3
2018-04-11T04:30:18.378Z,86.6
2018-04-11T04:31:19.730Z,86.4
2018-04-11T04:32:21.076Z,87.0
2018-04-11T04:33:22.434Z,87.0
2018-04-11T04:34:23.782Z,87.0
2018-04-11T04:35:25.136Z,87.1
2018-04-11T04:36:26.481Z,87.3
2018-04-11T04:37:27.837Z,87.3
2018-04-11T04:38:29.188Z,87.1
2018-04-11T04:39:30.551Z,87.3
2018-04-11T04:40:31.914Z,87.2
2018-04-11T04:41:33.260Z,87.6
2018-04-11T04:42:34.637Z,87.3
2018-04-11T04:43:35.974Z,88.0
2018-04-11T04:44:37.319Z,87.8
2018-04-11T04:45:38.678Z,87.6
2018-04-11T04:46:40.026Z,87.7
2018-04-11T04:47:41.378Z,87.8
2018-04-11T04:48:42.736Z,87.7
2018-04-11T04:49:44.103Z,87.7
2018-04-11T04:50:45.455Z,87.5
2018-04-11T04:51:46.812Z,87.3
2018-04-11T04:52:48.176Z,87.6
2018-04-11T04:53:49.528Z,87.8
2018-04-11T04:54:50.879Z,87.8
2018-04-11T04:55:52.224Z,88.2
2018-04-11T04:56:53.576Z,88.0
2018-04-11T04:57:54.930Z,88.0
2018-04-11T04:58:56.296Z,88.1
2018-04-11T04:59:57.653Z,87.9
2018-04-11T05:00:59.006Z,87.7
2018-04-11T05:02:00.366Z,88.3
2018-04-11T05:03:01.715Z,88.4
2018-04-11T05:04:03.062Z,88.1
2018-04-11T05:05:04.426Z,88.4
2018-04-11T05:06:05.773Z,88.1
2018-04-11T05:07:07.142Z,88.3
2018-04-11T05:08:08.494Z,88.6
2018-04-11T05:09:09.844Z,88.3
2018-04-11T05:10:11.196Z,88.6
2018-04-11T05:11:12.552Z,88.6
2018-04-11T05:12:13.907Z,88.8
2018-04-11T05:13:15.266Z,88.5
2018-04-11T05:14:16.625Z,88.7
2018-04-11T05:15:17.973Z,88.6
2018-04-11T05:16:19.332Z,88.9
2018-04-11T05:17:20.679Z,88.4
2018-04-11T05:18:22.032Z,88.7
2018-04-11T05:19:23.394Z,89.2
2018-04-11T05:20:24.751Z,88.7
2018-04-11T05:21:26.127Z,89.4
2018-04-11T05:22:27.488Z,89.3
2018-04-11T05:23:28.850Z,89.2
2018-04-11T05:24:30.210Z,88.9
2018-04-11T05:25:31.557Z,89.1
2018-04-11T05:26:32.915Z,88.7
2018-04-11T05:27:34.278Z,89.2
2018-04-11T05:28:35.637Z,88.7
2018-04-11T05:29:36.994Z,89.0
2018-04-11T05:30:38.345Z,88.9
2018-04-11T05:31:39.696Z,88.9
2018-04-11T05:32:41.098Z,89.1
2018-04-11T05:33:42.420Z,88.7
2018-04-11T05:34:43.778Z,88.7
2018-04-11T05:35:45.137Z,89.2
2018-04-11T05:36:46.481Z,89.1
2018-04-11T05:37:47.848Z,89.1
2018-04-11T05:38:49.196Z,88.9
2018-04-11T05:39:50.545Z,89.0
2018-04-11T05:40:51.902Z,88.9
2018-04-11T05:41:53.254Z,88.7
2018-04-11T05:42:54.613Z,88.7
2018-04-11T05:43:55.964Z,89.3
2018-04-11T05:44:57.336Z,89.2
2018-04-11T05:45:58.684Z,89.6
2018-04-11T05:47:00.034Z,89.1
2018-04-11T05:48:01.441Z,89.1
2018-04-11T05:49:02.746Z,89.3
2018-04-11T05:50:04.093Z,89.1
2018-04-11T05:51:05.456Z,89.3
2018-04-11T05:52:06.810Z,89.3
2018-04-11T05:53:08.208Z,88.5
2018-04-11T05:54:09.521Z,88.5
2018-04-11T05:55:10.877Z,88.5
2018-04-11T05:56:12.232Z,88.9
2018-04-11T05:57:13.594Z,89.1
2018-04-11T05:58:14.950Z,89.0
2018-04-11T05:59:16.306Z,89.0
2018-04-11T06:00:17.656Z,89.0
2018-04-11T06:01:19.110Z,89.2
2018-04-11T06:02:20.458Z,89.2
2018-04-11T06:03:21.814Z,89.1
2018-04-11T06:04:23.167Z,89.0
2018-04-11T06:05:25.237Z,89.2
2018-04-11T06:06:26.594Z,89.2
2018-04-11T06:07:27.951Z,88.9
2018-04-11T06:08:29.326Z,89.0
2018-04-11T06:09:30.676Z,88.9
2018-04-11T06:10:32.028Z,88.9
2018-04-11T06:11:33.392Z,89.0
2018-04-11T06:12:34.745Z,88.8
2018-04-11T06:13:36.104Z,89.1
2018-04-11T06:14:37.464Z,89.0
2018-04-11T06:15:38.821Z,89.1
2018-04-11T06:16:40.174Z,88.9
2018-04-11T06:17:41.529Z,89.0
2018-04-11T06:18:42.897Z,88.9
2018-04-11T06:19:44.246Z,89.2
2018-04-11T06:20:45.605Z,89.0
2018-04-11T06:21:46.962Z,89.5
2018-04-11T06:22:48.367Z,89.1
2018-04-11T06:23:49.672Z,89.5
2018-04-11T06:24:51.028Z,88.8
2018-04-11T06:25:52.380Z,89.0
2018-04-11T06:26:53.753Z,88.5
2018-04-11T06:27:55.098Z,88.8
2018-04-11T06:28:56.453Z,88.4
2018-04-11T06:29:57.807Z,88.8
2018-04-11T06:30:59.168Z,88.4
2018-04-11T06:32:00.538Z,88.7
2018-04-11T06:33:01.887Z,88.6
2018-04-11T06:34:03.245Z,88.3
2018-04-11T06:35:04.645Z,87.9
2018-04-11T06:36:05.986Z,88.4
2018-04-11T06:37:07.360Z,88.1
2018-04-11T06:38:08.719Z,87.3
2018-04-11T06:39:10.074Z,87.0
2018-04-11T06:40:11.450Z,86.1
2018-04-11T06:41:12.801Z,86.5
2018-04-11T06:42:14.169Z,85.8
2018-04-11T06:43:15.522Z,85.6
2018-04-11T06:44:16.885Z,85.3
2018-04-11T06:45:18.246Z,85.1
2018-04-11T06:46:19.606Z,84.9
2018-04-11T06:47:21.016Z,84.3
2018-04-11T06:48:22.337Z,84.2
2018-04-11T06:49:24.559Z,84.7
2018-04-11T06:50:25.909Z,83.9
2018-04-11T06:51:27.277Z,83.6
2018-04-11T06:52:28.646Z,83.3
2018-04-11T06:53:30.021Z,82.9
2018-04-11T06:54:31.391Z,82.1
2018-04-11T06:55:32.765Z,81.7
2018-04-11T06:56:34.126Z,81.6
2018-04-11T06:57:35.488Z,81.4
2018-04-11T06:58:36.853Z,81.5
2018-04-11T06:59:38.250Z,81.1
2018-04-11T07:00:39.591Z,81.1
2018-04-11T07:01:40.960Z,81.2
2018-04-11T07:02:42.331Z,81.1
2018-04-11T07:03:43.701Z,81.0
2018-04-11T07:04:45.069Z,81.3
2018-04-11T07:05:46.436Z,80.4
2018-04-11T07:06:47.808Z,80.4
2018-04-11T07:07:49.177Z,79.7
2018-04-11T07:08:50.558Z,79.8
2018-04-11T07:09:51.922Z,78.8
2018-04-11T07:10:53.294Z,78.5
2018-04-11T07:11:54.659Z,79.1
2018-04-11T07:12:56.024Z,78.1
2018-04-11T07:13:57.388Z,78.2
2018-04-11T07:14:58.768Z,78.8
2018-04-11T07:16:00.140Z,78.1
2018-04-11T07:17:01.513Z,78.0
2018-04-11T07:18:02.877Z,77.7
2018-04-11T07:19:04.252Z,77.1
2018-04-11T07:20:05.625Z,77.0
2018-04-11T07:21:06.983Z,76.6
2018-04-11T07:22:08.356Z,76.6
2018-04-11T07:23:09.730Z,76.6
2018-04-11T07:24:11.111Z,76.2
2018-04-11T07:25:12.488Z,76.4
2018-04-11T07:26:13.856Z,75.4
2018-04-11T07:27:15.216Z,75.2
2018-04-11T07:28:16.585Z,74.7
2018-04-11T07:29:18.817Z,75.1
2018-04-11T07:30:20.190Z,74.6
2018-04-11T07:31:21.561Z,74.5
2018-04-11T07:32:22.933Z,74.2
2018-04-11T07:33:24.301Z,73.4
2018-04-11T07:34:25.671Z,73.9
2018-04-11T07:35:27.029Z,73.9
2018-04-11T07:36:28.395Z,73.2
2018-04-11T07:37:29.776Z,72.8
2018-04-11T07:38:31.148Z,72.9
2018-04-11T07:39:32.531Z,73.1
2018-04-11T07:40:33.914Z,72.4
2018-04-11T07:41:35.295Z,72.2
2018-04-11T07:42:36.672Z,71.7
2018-04-11T07:43:38.044Z,72.1
2018-04-11T07:44:39.416Z,71.7
2018-04-11T07:45:40.795Z,71.3
2018-04-11T07:46:42.176Z,71.0
2018-04-11T07:47:43.536Z,70.6
2018-04-11T07:48:44.913Z,70.7
2018-04-11T07:49:46.284Z,70.3
2018-04-11T07:50:47.660Z,70.4
2018-04-11T07:51:49.044Z,70.1
2018-04-11T07:52:50.418Z,69.8
2018-04-11T07:53:51.813Z,69.8
2018-04-11T07:54:53.192Z,69.7
2018-04-11T07:55:54.567Z,69.6
2018-04-11T07:56:55.951Z,69.4
2018-04-11T07:57:57.326Z,68.8
2018-04-11T07:58:58.708Z,68.6
2018-04-11T08:00:00.091Z,68.6
2018-04-11T08:01:01.480Z,68.5
2018-04-11T08:02:02.855Z,67.6
2018-04-11T08:03:04.234Z,67.7
2018-04-11T08:04:05.598Z,67.5
2018-04-11T08:05:06.986Z,67.6
2018-04-11T08:06:08.356Z,67.1
2018-04-11T08:07:09.744Z,66.7
2018-04-11T08:08:11.133Z,66.7
2018-04-11T08:09:13.179Z,66.4
2018-04-11T08:10:14.546Z,65.8
2018-04-11T08:11:15.937Z,65.8
2018-04-11T08:12:17.307Z,65.4
2018-04-11T08:13:18.684Z,65.0
2018-04-11T08:14:20.064Z,64.9
2018-04-11T08:15:21.437Z,64.6
2018-04-11T08:16:22.838Z,64.7
2018-04-11T08:17:24.186Z,64.2
2018-04-11T08:18:25.563Z,64.4
2018-04-11T08:19:26.930Z,63.9
2018-04-11T08:20:28.313Z,63.5
2018-04-11T08:21:29.696Z,63.4
2018-04-11T08:22:31.062Z,62.9
2018-04-11T08:23:32.447Z,62.9
2018-04-11T08:24:33.822Z,63.2
2018-04-11T08:25:35.192Z,62.7
2018-04-11T08:26:36.560Z,62.7
2018-04-11T08:27:37.949Z,63.0
2018-04-11T08:28:39.361Z,63.0
2018-04-11T08:29:40.702Z,63.0
2018-04-11T08:30:42.098Z,63.1
2018-04-11T08:31:43.480Z,62.6
2018-04-11T08:32:44.856Z,62.2
2018-04-11T08:33:46.245Z,61.5
2018-04-11T08:34:47.627Z,62.0
2018-04-11T08:35:49.014Z,61.4
2018-04-11T08:36:50.385Z,61.5
2018-04-11T08:37:51.756Z,61.2
2018-04-11T08:38:53.136Z,61.1
2018-04-11T08:39:54.527Z,61.2
2018-04-11T08:40:55.895Z,61.1
2018-04-11T08:41:57.276Z,60.4
2018-04-11T08:42:58.659Z,60.2
2018-04-11T08:44:00.045Z,59.9
2018-04-11T08:45:01.430Z,60.2
2018-04-11T08:46:02.822Z,59.2
2018-04-11T08:47:04.202Z,59.5
2018-04-11T08:48:05.571Z,59.9
2018-04-11T08:49:06.954Z,59.6
2018-04-11T08:50:08.332Z,59.0
2018-04-11T08:51:09.705Z,58.9
2018-04-11T08:52:11.081Z,58.9
2018-04-11T08:53:12.450Z,58.9
2018-04-11T08:54:13.835Z,58.9
2018-04-11T08:55:15.207Z,58.7
2018-04-11T08:56:16.585Z,58.9
2018-04-11T08:57:17.967Z,58.6
2018-04-11T08:58:19.347Z,58.5
2018-04-11T08:59:20.722Z,58.4
2018-04-11T09:00:22.090Z,58.4
2018-04-11T09:01:23.469Z,58.2
2018-04-11T09:02:24.851Z,58.3
2018-04-11T09:03:26.238Z,57.9
2018-04-11T09:04:27.614Z,57.8
2018-04-11T09:05:29.051Z,57.5
2018-04-11T09:06:30.347Z,57.8
2018-04-11T09:07:31.736Z,56.9
2018-04-11T09:08:33.115Z,56.6
2018-04-11T09:09:34.493Z,56.7
2018-04-11T09:10:35.889Z,56.7
2018-04-11T09:11:37.270Z,56.6
2018-04-11T09:12:38.654Z,57.4
2018-04-11T09:13:40.016Z,56.7
2018-04-11T09:14:41.421Z,57.4
2018-04-11T09:15:42.780Z,56.7
2018-04-11T09:16:44.166Z,56.6
2018-04-11T09:17:45.543Z,56.9
2018-04-11T09:18:46.931Z,56.7
2018-04-11T09:19:48.312Z,56.6
2018-04-11T09:20:49.707Z,56.5
2018-04-11T09:21:51.082Z,56.6
2018-04-11T09:22:52.461Z,56.8
2018-04-11T09:23:53.867Z,56.3
2018-04-11T09:24:55.252Z,55.6
2018-04-11T09:25:56.636Z,55.7
2018-04-11T09:26:58.016Z,56.4
2018-04-11T09:27:59.402Z,56.3
2018-04-11T09:29:00.790Z,55.6
2018-04-11T09:30:02.163Z,55.4
2018-04-11T09:31:03.549Z,55.4
2018-04-11T09:32:04.930Z,55.1
2018-04-11T09:33:06.353Z,55.7
2018-04-11T09:34:07.703Z,55.6
2018-04-11T09:35:09.087Z,54.8
2018-04-11T09:36:10.475Z,54.5
2018-04-11T09:37:11.854Z,54.6
2018-04-11T09:38:13.234Z,54.4
2018-04-11T09:39:14.613Z,54.2
2018-04-11T09:40:15.997Z,54.7
2018-04-11T09:41:17.630Z,54.0
2018-04-11T09:42:19.024Z,53.6
2018-04-11T09:43:20.401Z,53.1
2018-04-11T09:44:21.786Z,53.2
2018-04-11T09:45:23.164Z,52.9
2018-04-11T09:46:24.554Z,52.2
2018-04-11T09:47:25.943Z,52.4
2018-04-11T09:48:27.328Z,52.0
2018-04-11T09:49:28.708Z,52.0
2018-04-11T09:50:30.087Z,52.2
2018-04-11T09:51:31.464Z,51.6
2018-04-11T09:52:32.837Z,51.5
2018-04-11T09:53:34.219Z,51.5
2018-04-11T09:54:35.604Z,51.5
2018-04-11T09:55:36.983Z,51.7
2018-04-11T09:56:38.365Z,51.6
2018-04-11T09:57:39.755Z,51.3
2018-04-11T09:58:41.131Z,51.0
2018-04-11T09:59:42.505Z,50.8
2018-04-11T10:00:43.896Z,50.8
2018-04-11T10:01:45.271Z,50.6
2018-04-11T10:02:46.651Z,51.5
2018-04-11T10:03:48.042Z,50.8
2018-04-11T10:04:49.438Z,51.2
2018-04-11T10:05:50.816Z,50.0
2018-04-11T10:06:52.216Z,49.2
2018-04-11T10:07:53.574Z,49.7
2018-04-11T10:08:54.965Z,49.1
2018-04-11T10:09:56.348Z,49.4
2018-04-11T10:10:57.741Z,49.7
2018-04-11T10:11:59.123Z,49.9
2018-04-11T10:13:00.497Z,49.9
2018-04-11T10:14:01.876Z,49.2
2018-04-11T10:15:03.256Z,49.5
2018-04-11T10:16:04.643Z,48.9
2018-04-11T10:17:06.018Z,48.3
2018-04-11T10:18:07.401Z,48.6
2018-04-11T10:19:08.823Z,48.3
2018-04-11T10:20:10.163Z,48.2
2018-04-11T10:21:11.550Z,48.0
2018-04-11T10:22:12.932Z,48.4
2018-04-11T10:23:14.322Z,48.1
2018-04-11T10:24:15.706Z,47.2
2018-04-11T10:25:17.083Z,47.0
2018-04-11T10:26:18.462Z,46.8
2018-04-11T10:27:19.843Z,46.0
2018-04-11T10:28:21.218Z,46.4
2018-04-11T10:29:22.606Z,46.4
2018-04-11T10:30:24.770Z,46.2
2018-04-11T10:31:26.172Z,45.6
2018-04-11T10:32:27.538Z,45.5
2018-04-11T10:33:28.916Z,45.4
2018-04-11T10:34:30.312Z,44.8
2018-04-11T10:35:31.703Z,45.1
2018-04-11T10:36:33.079Z,45.1
2018-04-11T10:37:34.460Z,44.8
2018-04-11T10:38:35.847Z,44.5
2018-04-11T10:39:37.236Z,44.5
2018-04-11T10:40:38.624Z,44.5
2018-04-11T10:41:40.003Z,44.4
2018-04-11T10:42:41.380Z,44.5
2018-04-11T10:43:42.770Z,44.3
2018-04-11T10:44:44.161Z,43.9
2018-04-11T10:45:45.562Z,43.7
2018-04-11T10:46:46.942Z,43.8
2018-04-11T10:47:48.317Z,43.6
2018-04-11T10:48:49.705Z,43.9
2018-04-11T10:49:51.083Z,43.0
2018-04-11T10:50:52.463Z,43.1
2018-04-11T10:51:54.803Z,43.1
2018-04-11T10:52:56.179Z,43.1
2018-04-11T10:53:57.562Z,43.1
2018-04-11T10:54:58.942Z,43.3
2018-04-11T10:56:00.332Z,43.1
2018-04-11T10:57:01.717Z,42.9
2018-04-11T10:58:03.100Z,42.9
2018-04-11T10:59:04.499Z,42.6
2018-04-11T11:00:05.881Z,42.4
2018-04-11T11:01:07.267Z,42.4
2018-04-11T11:02:08.647Z,42.9
2018-04-11T11:03:10.024Z,42.9
2018-04-11T11:04:11.406Z,42.6
2018-04-11T11:05:12.792Z,42.7
2018-04-11T11:06:14.207Z,42.8
2018-04-11T11:07:15.591Z,42.3
2018-04-11T11:08:16.970Z,42.0
2018-04-11T11:09:18.352Z,41.9
2018-04-11T11:10:19.733Z,41.9
2018-04-11T11:11:21.111Z,42.5
2018-04-11T11:12:22.509Z,41.9
2018-04-11T11:13:23.891Z,41.7
2018-04-11T11:14:25.273Z,41.6
2018-04-11T11:15:26.680Z,41.6
2018-04-11T11:16:28.098Z,41.1
2018-04-11T11:17:29.438Z,41.5
2018-04-11T11:18:30.812Z,41.8
2018-04-11T11:19:32.207Z,41.8
2018-04-11T11:20:33.633Z,41.4
2018-04-11T11:21:35.007Z,41.2
2018-04-11T11:22:36.390Z,41.3
2018-04-11T11:23:37.776Z,41.4
2018-04-11T11:24:39.156Z,41.7
2018-04-11T11:25:40.544Z,41.8
2018-04-11T11:26:41.919Z,41.2
2018-04-11T11:27:43.307Z,41.0
2018-04-11T11:28:44.745Z,41.5
2018-04-11T11:29:46.127Z,41.6
2018-04-11T11:30:47.514Z,41.2
2018-04-11T11:31:48.892Z,41.3
2018-04-11T11:32:50.277Z,40.9
2018-04-11T11:33:51.652Z,41.2
2018-04-11T11:34:53.032Z,41.1
2018-04-11T11:35:54.422Z,41.3
2018-04-11T11:36:55.805Z,41.4
2018-04-11T11:37:57.194Z,41.1
2018-04-11T11:38:58.581Z,41.1
2018-04-11T11:39:59.976Z,40.3
2018-04-11T11:41:01.368Z,40.7
2018-04-11T11:42:03.459Z,40.5
2018-04-11T11:43:04.858Z,40.5
2018-04-11T11:44:06.238Z,40.2
2018-04-11T11:45:07.614Z,39.9
2018-04-11T11:46:09.003Z,39.7
2018-04-11T11:47:10.387Z,39.6
2018-04-11T11:48:11.781Z,39.6
2018-04-11T11:49:13.193Z,39.7
2018-04-11T11:50:14.541Z,39.6
2018-04-11T11:51:15.927Z,39.8
2018-04-11T11:52:17.312Z,39.9
2018-04-11T11:53:18.688Z,39.7
2018-04-11T11:54:20.075Z,39.3
2018-04-11T11:55:21.467Z,39.4
2018-04-11T11:56:22.862Z,39.0
2018-04-11T11:57:24.285Z,39.1
2018-04-11T11:58:25.646Z,39.1
2018-04-11T11:59:27.064Z,39.1
2018-04-11T12:00:28.497Z,39.2
2018-04-11T12:01:29.881Z,39.0
2018-04-11T12:02:31.271Z,39.0
2018-04-11T12:03:32.658Z,39.2
2018-04-11T12:04:34.033Z,39.0
2018-04-11T12:05:35.414Z,39.0
2018-04-11T12:06:36.796Z,38.9
2018-04-11T12:07:38.177Z,38.9
2018-04-11T12:08:39.571Z,38.9
2018-04-11T12:09:40.956Z,39.0
2018-04-11T12:10:42.332Z,38.9
2018-04-11T12:11:43.719Z,39.2
2018-04-11T12:12:45.091Z,39.0
2018-04-11T12:13:46.474Z,39.0
2018-04-11T12:14:47.872Z,39.0
2018-04-11T12:15:49.257Z,39.2
2018-04-11T12:16:50.642Z,39.2
2018-04-11T12:17:52.020Z,39.3
2018-04-11T12:18:53.406Z,38.9
2018-04-11T12:19:54.789Z,39.0
2018-04-11T12:20:56.266Z,39.1
2018-04-11T12:21:57.656Z,39.1
2018-04-11T12:22:59.038Z,38.9
2018-04-11T12:24:00.429Z,39.0
2018-04-11T12:25:01.856Z,38.9
2018-04-11T12:26:03.192Z,38.9
2018-04-11T12:27:04.572Z,38.9
2018-04-11T12:28:05.957Z,38.4
2018-04-11T12:29:07.346Z,38.7
2018-04-11T12:30:08.736Z,38.2
2018-04-11T12:31:10.126Z,38.3
2018-04-11T12:32:11.509Z,38.4
2018-04-11T12:33:12.937Z,38.2
2018-04-11T12:34:14.307Z,38.2
2018-04-11T12:35:15.693Z,38.0
2018-04-11T12:36:17.081Z,37.5
2018-04-11T12:37:18.501Z,37.5
2018-04-11T12:38:19.843Z,37.9
2018-04-11T12:39:21.221Z,38.1
2018-04-11T12:40:22.605Z,38.1
2018-04-11T12:41:24.920Z,37.8
2018-04-11T12:42:26.276Z,37.8
2018-04-11T12:43:27.667Z,37.5
2018-04-11T12:44:29.044Z,37.4
2018-04-11T12:45:30.418Z,37.4
2018-04-11T12:46:31.818Z,37.4
2018-04-11T12:47:33.205Z,37.3
2018-04-11T12:48:34.592Z,37.6
2018-04-11T12:49:35.973Z,37.4
2018-04-11T12:50:37.354Z,37.4
2018-04-11T12:51:38.744Z,37.2
2018-04-11T12:52:40.125Z,37.1
2018-04-11T12:53:41.515Z,37.1
2018-04-11T12:54:42.897Z,36.8
2018-04-11T12:55:44.297Z,36.8
2018-04-11T12:56:45.660Z,37.1
2018-04-11T12:57:47.034Z,37.0
2018-04-11T12:58:48.422Z,37.0
2018-04-11T12:59:49.817Z,37.0
2018-04-11T13:00:53.145Z,36.7
2018-04-11T13:01:54.533Z,36.6
2018-04-11T13:02:55.915Z,36.5
2018-04-11T13:03:57.303Z,36.2
2018-04-11T13:10:15.818Z,35.8
2018-04-11T13:11:17.199Z,35.7
2018-04-11T13:12:18.583Z,35.5
2018-04-11T13:13:19.967Z,35.6
2018-04-11T13:14:21.346Z,35.7
2018-04-11T13:15:22.735Z,35.4
2018-04-11T13:16:24.120Z,35.4
2018-04-11T13:17:25.507Z,35.4
2018-04-11T13:18:26.910Z,35.3
2018-04-11T13:19:28.266Z,35.4
2018-04-11T13:20:30.155Z,35.4
2018-04-11T13:21:31.551Z,35.1
2018-04-11T13:22:32.933Z,35.0
2018-04-11T13:23:34.314Z,35.3
2018-04-11T13:24:35.693Z,35.1
2018-04-11T13:25:37.099Z,35.1
2018-04-11T13:26:38.469Z,35.1
2018-04-11T13:27:39.854Z,35.4
2018-04-11T13:28:41.255Z,35.0
2018-04-11T13:29:42.643Z,35.1
2018-04-11T13:30:44.027Z,35.2
2018-04-11T13:31:45.423Z,34.9
2018-04-11T13:32:46.797Z,35.0
2018-04-11T13:33:48.181Z,35.0
2018-04-11T13:34:49.574Z,35.1
2018-04-11T13:35:50.958Z,35.4
2018-04-11T13:36:52.338Z,35.3
2018-04-11T13:37:53.726Z,35.3
2018-04-11T13:38:55.119Z,34.7
2018-04-11T13:39:56.506Z,35.0
2018-04-11T13:40:58.013Z,34.8
2018-04-11T13:41:59.363Z,34.8